Time;durP1;ratioP1;P1;durP2;ratioP2;P2;SDS_P1;SDS_P2;PMS_P1;PMS_P2;Temp;Humidity;BMP_temperature;BMP_pressure;BME280_temperature;BME280_humidity;BME280_pressure;Samples;Min_cycle;Max_cycle;Signal;HPM_P1;HPM_P2
2023/04/28 00:00:10;;;;;;;58.08;32.45;;;;;;;;;;5011737;28;20112;-73
2023/04/28 00:02:36;;;;;;;51.97;27.90;;;;;;;;;;5001934;28;20045;-74
2023/04/28 00:05:01;;;;;;;38.65;24.30;;;;;;;;;;5000529;28;20495;-75
2023/04/28 00:07:27;;;;;;;25.58;14.82;;;;;;;;;;5001380;28;20082;-72
2023/04/28 00:09:52;;;;;;;27.60;17.60;;;;;;;;;;5009138;28;20913;-72
2023/04/28 00:12:17;;;;;;;26.58;15.80;;;;;;;;;;5010990;28;20112;-71
2023/04/28 00:14:43;;;;;;;15.20;10.60;;;;;;;;;;5010560;28;20082;-71
2023/04/28 00:17:09;;;;;;;12.75;10.23;;;;;;;;;;5009165;28;20032;-71
2023/04/28 00:19:34;;;;;;;15.60;10.75;;;;;;;;;;5012562;28;20119;-75
2023/04/28 00:22:00;;;;;;;30.05;19.08;;;;;;;;;;5012374;28;20112;-71
2023/04/28 00:24:25;;;;;;;64.95;42.20;;;;;;;;;;5010141;28;20655;-74
2023/04/28 00:26:51;;;;;;;55.08;39.35;;;;;;;;;;5012547;28;20025;-71
2023/04/28 00:29:16;;;;;;;51.20;33.75;;;;;;;;;;5012106;28;20447;-71
2023/04/28 00:31:43;;;;;;;38.03;25.63;;;;;;;;;;5007366;28;20116;-71
2023/04/28 00:34:12;;;;;;;28.30;18.75;;;;;;;;;;5004566;28;20029;-73
2023/04/28 00:36:38;;;;;;;39.42;26.90;;;;;;;;;;5009742;28;20425;-75
2023/04/28 00:39:03;;;;;;;28.63;19.50;;;;;;;;;;5009592;28;20022;-73
2023/04/28 00:41:29;;;;;;;47.55;33.47;;;;;;;;;;5011573;28;20033;-74
2023/04/28 00:43:54;;;;;;;61.70;41.05;;;;;;;;;;5012110;28;20026;-72
2023/04/28 00:46:30;;;;;;;58.40;39.20;;;;;;;;;;5007196;28;20025;-71
2023/04/28 00:48:56;;;;;;;63.00;39.30;;;;;;;;;;5009009;28;20064;-72
2023/04/28 00:51:22;;;;;;;56.30;39.03;;;;;;;;;;5011574;28;20114;-72
2023/04/28 00:53:47;;;;;;;68.60;43.80;;;;;;;;;;5012239;28;20566;-72
2023/04/28 00:56:13;;;;;;;78.57;50.70;;;;;;;;;;5010300;28;20143;-72
2023/04/28 00:58:39;;;;;;;83.85;56.72;;;;;;;;;;5010969;28;20094;-71
2023/04/28 01:01:04;;;;;;;75.88;50.97;;;;;;;;;;5013824;28;20398;-71
2023/04/28 01:03:32;;;;;;;63.47;43.50;;;;;;;;;;5011204;28;20128;-71
2023/04/28 01:05:58;;;;;;;53.05;37.50;;;;;;;;;;5009081;28;20033;-72
2023/04/28 01:08:27;;;;;;;58.95;37.75;;;;;;;;;;5012084;28;20034;-72
2023/04/28 01:10:52;;;;;;;76.55;49.10;;;;;;;;;;5013351;28;20041;-75
2023/04/28 01:13:17;;;;;;;76.57;44.67;;;;;;;;;;5015281;28;20396;-72
2023/04/28 01:15:43;;;;;;;58.70;29.67;;;;;;;;;;5016995;28;20060;-74
2023/04/28 01:18:16;;;;;;;45.72;24.98;;;;;;;;;;5014644;28;20141;-71
2023/04/28 01:20:41;;;;;;;40.17;23.98;;;;;;;;;;5011337;28;20038;-72
2023/04/28 01:23:13;;;;;;;44.70;24.83;;;;;;;;;;5016991;28;20112;-73
2023/04/28 01:25:39;;;;;;;49.55;29.00;;;;;;;;;;5014427;28;20025;-72
2023/04/28 01:28:04;;;;;;;43.03;29.15;;;;;;;;;;5014248;28;20042;-72
2023/04/28 01:30:30;;;;;;;49.08;30.25;;;;;;;;;;5015416;28;20034;-74
2023/04/28 01:32:55;;;;;;;36.53;25.40;;;;;;;;;;5013222;28;20040;-71
2023/04/28 01:35:20;;;;;;;39.55;25.27;;;;;;;;;;5015073;28;20038;-70
2023/04/28 01:37:46;;;;;;;32.10;21.30;;;;;;;;;;5015316;28;20381;-71
2023/04/28 01:40:11;;;;;;;31.83;21.60;;;;;;;;;;5014805;28;20117;-71
2023/04/28 01:42:37;;;;;;;27.42;19.67;;;;;;;;;;5016186;28;20037;-71
2023/04/28 01:45:04;;;;;;;39.20;25.75;;;;;;;;;;5013816;28;20030;-74
2023/04/28 01:47:29;;;;;;;29.70;20.58;;;;;;;;;;5011855;28;20034;-75
2023/04/28 01:49:54;;;;;;;30.10;22.38;;;;;;;;;;5013617;28;20056;-72
2023/04/28 01:52:21;;;;;;;30.48;22.00;;;;;;;;;;5013065;28;20022;-71
2023/04/28 01:54:47;;;;;;;26.60;18.20;;;;;;;;;;5012502;28;20025;-70
2023/04/28 01:57:12;;;;;;;23.98;17.00;;;;;;;;;;5013300;28;20021;-73
2023/04/28 01:59:37;;;;;;;24.67;17.13;;;;;;;;;;5011847;28;20037;-71
2023/04/28 02:02:03;;;;;;;30.77;17.98;;;;;;;;;;5015480;28;20095;-74
2023/04/28 02:04:28;;;;;;;31.55;20.42;;;;;;;;;;5016302;28;20059;-72
2023/04/28 02:06:53;;;;;;;28.30;20.48;;;;;;;;;;5014502;28;20372;-72
2023/04/28 02:09:19;;;;;;;31.00;21.55;;;;;;;;;;5012213;28;20327;-70
2023/04/28 02:11:44;;;;;;;27.05;19.88;;;;;;;;;;5009207;28;20025;-74
2023/04/28 02:14:10;;;;;;;25.65;18.83;;;;;;;;;;5009275;28;20029;-70
2023/04/28 02:16:35;;;;;;;17.80;13.52;;;;;;;;;;5013432;28;20051;-72
2023/04/28 02:19:00;;;;;;;35.30;25.90;;;;;;;;;;5013707;28;20067;-71
2023/04/28 02:21:26;;;;;;;45.10;30.38;;;;;;;;;;5012951;28;20029;-70
2023/04/28 02:23:52;;;;;;;36.50;26.13;;;;;;;;;;5003295;28;20697;-72
2023/04/28 02:26:17;;;;;;;31.33;23.52;;;;;;;;;;5013888;28;20026;-74
2023/04/28 02:28:43;;;;;;;31.50;21.67;;;;;;;;;;5011943;28;20046;-71
2023/04/28 02:31:09;;;;;;;32.05;25.00;;;;;;;;;;5013727;28;20759;-72
2023/04/28 02:33:35;;;;;;;29.15;22.65;;;;;;;;;;5014465;28;20022;-71
2023/04/28 02:36:01;;;;;;;26.42;20.80;;;;;;;;;;5012568;28;20098;-71
2023/04/28 02:38:26;;;;;;;20.75;15.02;;;;;;;;;;5010730;28;20032;-75
2023/04/28 02:41:03;;;;;;;28.50;18.90;;;;;;;;;;5013250;28;20519;-71
2023/04/28 02:43:29;;;;;;;28.30;20.27;;;;;;;;;;5015758;28;20034;-70
2023/04/28 02:45:55;;;;;;;27.33;19.67;;;;;;;;;;5011493;28;20055;-70
2023/04/28 02:48:20;;;;;;;24.48;17.85;;;;;;;;;;5011326;28;20026;-73
2023/04/28 02:50:46;;;;;;;29.48;20.25;;;;;;;;;;5013175;28;20120;-69
2023/04/28 02:53:11;;;;;;;33.65;21.52;;;;;;;;;;5010978;28;20025;-71
2023/04/28 02:55:36;;;;;;;40.90;25.17;;;;;;;;;;5010157;28;20030;-70
2023/04/28 02:58:02;;;;;;;47.33;30.25;;;;;;;;;;5013006;28;20060;-71
2023/04/28 03:00:27;;;;;;;42.85;27.52;;;;;;;;;;5012523;28;20363;-73
2023/04/28 03:02:53;;;;;;;41.97;27.95;;;;;;;;;;5011928;28;20053;-72
2023/04/28 03:05:18;;;;;;;29.35;20.63;;;;;;;;;;5005909;28;20366;-71
2023/04/28 03:07:44;;;;;;;33.80;22.63;;;;;;;;;;5012163;28;20029;-70
2023/04/28 03:10:09;;;;;;;34.33;23.88;;;;;;;;;;5011358;28;20524;-71
2023/04/28 03:12:35;;;;;;;25.83;17.25;;;;;;;;;;5012464;28;20086;-71
2023/04/28 03:15:00;;;;;;;15.48;10.13;;;;;;;;;;5013906;28;20025;-71
2023/04/28 03:17:26;;;;;;;14.25;10.52;;;;;;;;;;5011563;28;20041;-71
2023/04/28 03:19:51;;;;;;;14.43;11.48;;;;;;;;;;5013885;28;20116;-74
2023/04/28 03:22:16;;;;;;;22.45;15.50;;;;;;;;;;5011470;28;20310;-72
2023/04/28 03:24:42;;;;;;;246.60;119.03;;;;;;;;;;5013199;28;20029;-76
2023/04/28 03:27:07;;;;;;;143.07;73.95;;;;;;;;;;5011150;28;20395;-73
2023/04/28 03:29:32;;;;;;;97.05;51.50;;;;;;;;;;5002670;28;20081;-71
2023/04/28 03:31:58;;;;;;;87.07;49.25;;;;;;;;;;5011367;28;20457;-74
2023/04/28 03:34:23;;;;;;;107.03;60.58;;;;;;;;;;5011309;28;20117;-72
2023/04/28 03:36:49;;;;;;;92.38;51.70;;;;;;;;;;5013560;28;20018;-71
2023/04/28 03:39:14;;;;;;;57.92;35.20;;;;;;;;;;5009445;28;20072;-71
2023/04/28 03:41:40;;;;;;;69.90;42.90;;;;;;;;;;5012291;28;20067;-73
2023/04/28 03:44:05;;;;;;;57.17;36.97;;;;;;;;;;5010856;28;20348;-73
2023/04/28 03:46:31;;;;;;;34.63;24.92;;;;;;;;;;5014103;28;20090;-73
2023/04/28 03:48:56;;;;;;;29.88;23.92;;;;;;;;;;5010738;28;20026;-74
2023/04/28 03:51:21;;;;;;;30.52;23.90;;;;;;;;;;5014076;28;20044;-73
2023/04/28 03:53:47;;;;;;;30.48;23.63;;;;;;;;;;4996465;28;20108;-71
2023/04/28 03:56:12;;;;;;;28.00;22.58;;;;;;;;;;5001565;28;20552;-75
2023/04/28 03:58:37;;;;;;;29.17;22.50;;;;;;;;;;4998424;28;20029;-71
2023/04/28 04:01:04;;;;;;;29.55;21.90;;;;;;;;;;4999387;28;20036;-70
2023/04/28 04:03:29;;;;;;;27.20;22.05;;;;;;;;;;5000704;28;20061;-71
2023/04/28 04:05:55;;;;;;;22.95;17.13;;;;;;;;;;5003710;28;20056;-71
2023/04/28 04:08:20;;;;;;;24.17;16.80;;;;;;;;;;4999239;28;20033;-73
2023/04/28 04:10:45;;;;;;;18.13;13.57;;;;;;;;;;5001823;28;20436;-70
2023/04/28 04:13:11;;;;;;;17.15;11.57;;;;;;;;;;5008977;28;20036;-75
2023/04/28 04:15:36;;;;;;;19.92;12.48;;;;;;;;;;5009600;28;20040;-73
2023/04/28 04:18:01;;;;;;;48.20;23.88;;;;;;;;;;5011666;28;20034;-72
2023/04/28 04:20:27;;;;;;;29.83;16.10;;;;;;;;;;5012726;28;20037;-70
2023/04/28 04:22:52;;;;;;;27.48;17.05;;;;;;;;;;5010218;28;20017;-74
2023/04/28 04:25:18;;;;;;;23.95;16.40;;;;;;;;;;5013328;28;20339;-70
2023/04/28 04:27:43;;;;;;;26.70;21.70;;;;;;;;;;5003328;28;20040;-71
2023/04/28 04:30:09;;;;;;;46.42;33.80;;;;;;;;;;5000087;28;20325;-75
2023/04/28 04:32:34;;;;;;;61.00;44.50;;;;;;;;;;5007814;28;20102;-70
2023/04/28 04:35:00;;;;;;;44.33;39.15;;;;;;;;;;5010926;28;20029;-70
2023/04/28 04:37:25;;;;;;;17.75;14.90;;;;;;;;;;5009759;28;20034;-74
2023/04/28 04:39:50;;;;;;;43.72;29.85;;;;;;;;;;5013640;28;20475;-70
2023/04/28 04:42:16;;;;;;;53.00;33.65;;;;;;;;;;5011962;28;20033;-71
2023/04/28 04:44:41;;;;;;;54.60;40.40;;;;;;;;;;5013524;28;20024;-70
2023/04/28 04:47:06;;;;;;;62.47;45.92;;;;;;;;;;5015493;28;20021;-70
2023/04/28 04:49:32;;;;;;;74.45;58.22;;;;;;;;;;5010200;28;20033;-71
2023/04/28 04:51:58;;;;;;;121.00;90.80;;;;;;;;;;5010491;28;20044;-71
2023/04/28 04:54:23;;;;;;;121.68;87.45;;;;;;;;;;5018780;28;20074;-75
2023/04/28 04:56:48;;;;;;;88.30;60.45;;;;;;;;;;5016572;28;20036;-72
2023/04/28 04:59:14;;;;;;;75.07;51.72;;;;;;;;;;5019549;28;20025;-70
2023/04/28 05:01:39;;;;;;;70.45;53.63;;;;;;;;;;5013092;28;20325;-73
2023/04/28 05:04:04;;;;;;;62.97;49.00;;;;;;;;;;5011343;28;20033;-70
2023/04/28 05:06:30;;;;;;;117.03;88.03;;;;;;;;;;5016630;28;20026;-72
2023/04/28 05:08:57;;;;;;;92.43;72.75;;;;;;;;;;5016699;28;20045;-71
2023/04/28 05:11:22;;;;;;;88.30;65.40;;;;;;;;;;5011657;28;20026;-73
2023/04/28 05:13:48;;;;;;;89.88;57.03;;;;;;;;;;5007155;28;20032;-71
2023/04/28 05:16:13;;;;;;;85.72;60.08;;;;;;;;;;5006854;28;20028;-73
2023/04/28 05:18:39;;;;;;;50.75;32.97;;;;;;;;;;5015480;28;20443;-71
2023/04/28 05:21:05;;;;;;;31.20;19.63;;;;;;;;;;5017203;28;20070;-74
2023/04/28 05:23:30;;;;;;;20.20;17.40;;;;;;;;;;5016652;28;20139;-72
2023/04/28 05:25:55;;;;;;;23.65;17.08;;;;;;;;;;5016666;28;20108;-71
2023/04/28 05:28:21;;;;;;;30.23;21.55;;;;;;;;;;5017187;28;20145;-72
2023/04/28 05:30:46;;;;;;;26.60;20.48;;;;;;;;;;5017014;28;20125;-71
2023/04/28 05:33:12;;;;;;;36.88;25.15;;;;;;;;;;5018997;28;20041;-71
2023/04/28 05:35:38;;;;;;;44.85;29.23;;;;;;;;;;5016659;28;20029;-72
2023/04/28 05:38:03;;;;;;;42.45;26.60;;;;;;;;;;5015298;28;20057;-74
2023/04/28 05:40:28;;;;;;;238.85;162.07;;;;;;;;;;5015217;28;20030;-74
2023/04/28 05:42:54;;;;;;;373.02;218.75;;;;;;;;;;5011625;28;20033;-71
2023/04/28 05:45:19;;;;;;;110.97;67.25;;;;;;;;;;5012853;28;20025;-72
2023/04/28 05:47:45;;;;;;;210.13;112.15;;;;;;;;;;5009892;28;20436;-72
2023/04/28 05:50:10;;;;;;;153.50;74.32;;;;;;;;;;5016381;28;20353;-72
2023/04/28 05:52:36;;;;;;;60.85;39.08;;;;;;;;;;5018004;28;20444;-72
2023/04/28 05:55:01;;;;;;;153.35;109.35;;;;;;;;;;5014630;28;20041;-74
2023/04/28 05:57:26;;;;;;;69.53;51.70;;;;;;;;;;5000108;28;20030;-72
2023/04/28 05:59:52;;;;;;;42.75;30.45;;;;;;;;;;5002567;28;20030;-76
2023/04/28 06:02:17;;;;;;;25.70;18.63;;;;;;;;;;5001444;28;20026;-73
2023/04/28 06:04:43;;;;;;;14.50;11.60;;;;;;;;;;5009136;28;20022;-72
2023/04/28 06:07:08;;;;;;;28.67;17.45;;;;;;;;;;5014387;28;20036;-71
2023/04/28 06:09:34;;;;;;;25.30;15.95;;;;;;;;;;5009979;28;20463;-72
2023/04/28 06:11:59;;;;;;;48.47;27.23;;;;;;;;;;5012499;28;20064;-73
2023/04/28 06:14:24;;;;;;;27.85;19.42;;;;;;;;;;5012803;28;20078;-72
2023/04/28 06:16:50;;;;;;;22.23;15.75;;;;;;;;;;5015522;28;20126;-73
2023/04/28 06:19:17;;;;;;;20.95;16.17;;;;;;;;;;5011484;28;20112;-72
2023/04/28 06:21:43;;;;;;;20.30;17.33;;;;;;;;;;5009394;28;20030;-73
2023/04/28 06:24:08;;;;;;;25.15;17.40;;;;;;;;;;5011803;28;20029;-73
2023/04/28 06:26:34;;;;;;;23.55;16.48;;;;;;;;;;5013144;28;20033;-75
2023/04/28 06:28:59;;;;;;;22.38;15.30;;;;;;;;;;5010327;28;20109;-73
2023/04/28 06:31:24;;;;;;;22.00;14.88;;;;;;;;;;5009845;28;20037;-72
2023/04/28 06:33:50;;;;;;;21.98;15.07;;;;;;;;;;5013780;28;20056;-75
2023/04/28 06:36:16;;;;;;;36.10;26.48;;;;;;;;;;5011196;28;20021;-72
2023/04/28 06:38:42;;;;;;;33.10;18.65;;;;;;;;;;5012739;28;20472;-72
2023/04/28 06:41:08;;;;;;;19.33;12.27;;;;;;;;;;5010879;28;20064;-73
2023/04/28 06:43:33;;;;;;;20.63;10.57;;;;;;;;;;5012988;28;20034;-72
2023/04/28 06:45:59;;;;;;;12.32;8.48;;;;;;;;;;5013729;28;20042;-72
2023/04/28 06:48:25;;;;;;;13.88;9.82;;;;;;;;;;5012442;28;20029;-76
2023/04/28 06:50:50;;;;;;;15.10;11.52;;;;;;;;;;5013099;28;20141;-73
2023/04/28 06:53:15;;;;;;;15.13;11.00;;;;;;;;;;5013158;28;20352;-73
2023/04/28 06:55:41;;;;;;;12.45;9.07;;;;;;;;;;5011532;28;20116;-74
2023/04/28 06:58:06;;;;;;;13.52;8.93;;;;;;;;;;5013383;28;20354;-73
2023/04/28 07:00:32;;;;;;;9.73;7.13;;;;;;;;;;5014722;28;20049;-72
2023/04/28 07:02:57;;;;;;;16.30;10.02;;;;;;;;;;5012431;28;20598;-73
2023/04/28 07:05:23;;;;;;;9.70;5.90;;;;;;;;;;5011174;28;20021;-73
2023/04/28 07:07:48;;;;;;;13.13;8.55;;;;;;;;;;5010411;28;20130;-73
2023/04/28 07:10:14;;;;;;;9.73;5.85;;;;;;;;;;5011436;28;20061;-73
2023/04/28 07:12:40;;;;;;;8.52;5.70;;;;;;;;;;5012994;28;20375;-73
2023/04/28 07:15:05;;;;;;;7.22;5.63;;;;;;;;;;5014294;28;20029;-74
2023/04/28 07:17:31;;;;;;;8.50;5.70;;;;;;;;;;5013131;28;20018;-73
2023/04/28 07:19:56;;;;;;;8.80;4.85;;;;;;;;;;5013227;28;20037;-73
2023/04/28 07:22:21;;;;;;;7.75;4.78;;;;;;;;;;5012948;28;20032;-72
2023/04/28 07:24:47;;;;;;;9.43;4.53;;;;;;;;;;5012868;28;20029;-73
2023/04/28 07:27:12;;;;;;;9.48;5.95;;;;;;;;;;5011288;28;20029;-73
2023/04/28 07:29:37;;;;;;;9.40;5.78;;;;;;;;;;5013644;28;20052;-72
2023/04/28 07:32:04;;;;;;;8.98;5.07;;;;;;;;;;5012175;28;20026;-72
2023/04/28 07:34:29;;;;;;;8.55;6.00;;;;;;;;;;5012252;28;20036;-74
2023/04/28 07:36:55;;;;;;;8.80;5.90;;;;;;;;;;5011965;28;20034;-76
2023/04/28 07:39:20;;;;;;;20.45;7.85;;;;;;;;;;5014743;28;20033;-73
2023/04/28 07:41:46;;;;;;;14.70;7.75;;;;;;;;;;5011955;28;20029;-72
2023/04/28 07:44:12;;;;;;;12.32;6.72;;;;;;;;;;5012613;28;20021;-73
2023/04/28 07:46:37;;;;;;;8.50;5.57;;;;;;;;;;5010402;28;20025;-73
2023/04/28 07:49:03;;;;;;;6.18;4.35;;;;;;;;;;5012325;28;20447;-73
2023/04/28 07:51:29;;;;;;;7.57;4.22;;;;;;;;;;5011732;28;20682;-75
2023/04/28 07:53:55;;;;;;;4.55;2.92;;;;;;;;;;5010861;28;20021;-72
2023/04/28 07:56:21;;;;;;;5.78;3.05;;;;;;;;;;5012081;28;20036;-72
2023/04/28 07:58:46;;;;;;;13.35;6.03;;;;;;;;;;5011579;28;20516;-72
2023/04/28 08:01:12;;;;;;;10.52;6.10;;;;;;;;;;5010425;28;20491;-74
2023/04/28 08:03:37;;;;;;;10.70;5.50;;;;;;;;;;5011185;28;20447;-72
2023/04/28 08:06:02;;;;;;;5.65;3.78;;;;;;;;;;5011880;28;20028;-71
2023/04/28 08:08:29;;;;;;;5.20;3.50;;;;;;;;;;5009561;28;20029;-75
2023/04/28 08:10:56;;;;;;;7.15;3.95;;;;;;;;;;5013531;28;20321;-71
2023/04/28 08:13:21;;;;;;;11.18;6.90;;;;;;;;;;5011831;28;20028;-72
2023/04/28 08:15:47;;;;;;;5.90;4.10;;;;;;;;;;5008582;28;20026;-72
2023/04/28 08:18:12;;;;;;;10.98;5.78;;;;;;;;;;5010751;28;20141;-73
2023/04/28 08:20:38;;;;;;;79.28;26.20;;;;;;;;;;5013252;28;20041;-76
2023/04/28 08:23:03;;;;;;;10.30;4.93;;;;;;;;;;5012025;28;20025;-73
2023/04/28 08:25:29;;;;;;;7.75;4.70;;;;;;;;;;5012111;28;20022;-74
2023/04/28 08:27:55;;;;;;;8.60;5.13;;;;;;;;;;5012792;28;20117;-72
2023/04/28 08:30:21;;;;;;;8.68;4.20;;;;;;;;;;5012497;28;20041;-71
2023/04/28 08:32:46;;;;;;;6.28;3.78;;;;;;;;;;5012796;28;20026;-72
2023/04/28 08:35:14;;;;;;;11.23;3.38;;;;;;;;;;5012552;28;20029;-71
2023/04/28 08:37:39;;;;;;;5.00;3.55;;;;;;;;;;5012584;28;20037;-71
2023/04/28 08:40:08;;;;;;;6.20;3.10;;;;;;;;;;5003768;28;20042;-74
2023/04/28 08:42:34;;;;;;;4.68;3.17;;;;;;;;;;5006065;28;20433;-75
2023/04/28 08:44:59;;;;;;;6.32;3.08;;;;;;;;;;5011637;28;20041;-72
2023/04/28 08:47:33;;;;;;;40.92;15.48;;;;;;;;;;5011432;28;20033;-72
2023/04/28 08:50:05;;;;;;;17.60;6.55;;;;;;;;;;5002263;28;20022;-72
2023/04/28 08:52:32;;;;;;;7.30;4.43;;;;;;;;;;5010047;28;20030;-71
2023/04/28 08:54:58;;;;;;;6.47;3.25;;;;;;;;;;5009530;28;20034;-73
2023/04/28 08:57:26;;;;;;;5.55;3.63;;;;;;;;;;5008776;28;20494;-71
2023/04/28 08:59:51;;;;;;;5.55;3.47;;;;;;;;;;5005703;28;20085;-72
2023/04/28 09:02:17;;;;;;;6.13;3.13;;;;;;;;;;5006234;28;20512;-73
2023/04/28 09:04:42;;;;;;;4.97;3.20;;;;;;;;;;5007225;28;21138;-72
2023/04/28 09:07:11;;;;;;;13.73;6.32;;;;;;;;;;5011595;28;20030;-70
2023/04/28 09:09:36;;;;;;;6.90;2.78;;;;;;;;;;5012209;28;20167;-72
2023/04/28 09:12:02;;;;;;;7.70;4.57;;;;;;;;;;5011121;28;20519;-72
2023/04/28 09:14:29;;;;;;;19.35;6.03;;;;;;;;;;5011217;28;20104;-71
2023/04/28 09:16:54;;;;;;;7.00;3.63;;;;;;;;;;5008246;28;20077;-72
2023/04/28 09:19:20;;;;;;;8.35;4.57;;;;;;;;;;5011556;28;20116;-71
2023/04/28 09:21:48;;;;;;;6.20;4.72;;;;;;;;;;5010242;28;20136;-73
2023/04/28 09:24:32;;;;;;;12.98;6.10;;;;;;;;;;5009373;28;20030;-72
2023/04/28 09:26:58;;;;;;;12.15;6.85;;;;;;;;;;5012358;28;20048;-72
2023/04/28 09:29:24;;;;;;;9.98;2.85;;;;;;;;;;5010975;28;20049;-75
2023/04/28 09:31:49;;;;;;;5.57;2.75;;;;;;;;;;5013667;28;20040;-72
2023/04/28 09:34:15;;;;;;;7.47;4.90;;;;;;;;;;5013207;28;20076;-75
2023/04/28 09:36:40;;;;;;;7.10;4.03;;;;;;;;;;5013303;28;20089;-74
2023/04/28 09:39:06;;;;;;;10.13;5.30;;;;;;;;;;5015035;28;20030;-71
2023/04/28 09:41:44;;;;;;;4.72;3.80;;;;;;;;;;5014576;28;20034;-73
2023/04/28 09:44:13;;;;;;;18.38;8.20;;;;;;;;;;5012767;28;20051;-71
2023/04/28 09:46:39;;;;;;;5.05;2.60;;;;;;;;;;5011385;28;20040;-73
2023/04/28 09:49:04;;;;;;;7.40;3.90;;;;;;;;;;5013783;28;20382;-72
2023/04/28 09:51:30;;;;;;;11.77;5.40;;;;;;;;;;5011687;28;20026;-73
2023/04/28 09:53:58;;;;;;;21.67;10.15;;;;;;;;;;5013476;28;20061;-73
2023/04/28 09:56:26;;;;;;;33.08;15.18;;;;;;;;;;5013155;28;20033;-72
2023/04/28 09:58:52;;;;;;;6.53;4.75;;;;;;;;;;5013489;28;20025;-72
2023/04/28 10:01:18;;;;;;;5.20;3.30;;;;;;;;;;5013540;28;20159;-75
2023/04/28 10:03:44;;;;;;;4.43;3.28;;;;;;;;;;5013951;28;20033;-72
2023/04/28 10:06:10;;;;;;;7.40;4.75;;;;;;;;;;5014608;28;20117;-73
2023/04/28 10:08:35;;;;;;;5.50;3.50;;;;;;;;;;5016064;28;20074;-73
2023/04/28 10:11:01;;;;;;;10.70;6.22;;;;;;;;;;5010522;28;20037;-71
2023/04/28 10:13:26;;;;;;;4.53;2.63;;;;;;;;;;5013596;28;20108;-73
2023/04/28 10:15:54;;;;;;;35.90;14.65;;;;;;;;;;5013628;28;20040;-76
2023/04/28 10:18:21;;;;;;;6.03;3.55;;;;;;;;;;5013200;28;20121;-73
2023/04/28 10:20:48;;;;;;;13.57;7.53;;;;;;;;;;5011795;28;20371;-72
2023/04/28 10:23:32;;;;;;;7.05;4.90;;;;;;;;;;5014685;28;20322;-73
2023/04/28 10:25:58;;;;;;;6.15;3.50;;;;;;;;;;5014798;28;20029;-74
2023/04/28 10:28:25;;;;;;;4.15;3.13;;;;;;;;;;5015958;28;20174;-73
2023/04/28 10:31:09;;;;;;;3.70;2.72;;;;;;;;;;5012025;28;20033;-73
2023/04/28 10:33:36;;;;;;;3.30;2.65;;;;;;;;;;4999436;28;20408;-73
2023/04/28 10:36:03;;;;;;;3.38;2.28;;;;;;;;;;5001090;28;20026;-74
2023/04/28 10:38:28;;;;;;;4.57;2.47;;;;;;;;;;5002282;28;20049;-74
2023/04/28 10:40:54;;;;;;;7.35;3.20;;;;;;;;;;5002936;28;20072;-73
2023/04/28 10:43:29;;;;;;;6.88;3.78;;;;;;;;;;5002847;28;20033;-73
2023/04/28 10:46:00;;;;;;;5.80;3.83;;;;;;;;;;5003141;28;20029;-74
2023/04/28 10:48:25;;;;;;;4.75;2.90;;;;;;;;;;5002960;28;20114;-76
2023/04/28 10:51:11;;;;;;;3.13;2.33;;;;;;;;;;5003055;28;20074;-75
2023/04/28 10:53:47;;;;;;;6.20;2.67;;;;;;;;;;5001444;28;20191;-72
2023/04/28 10:56:15;;;;;;;4.97;3.47;;;;;;;;;;5002371;28;20128;-74
2023/04/28 10:58:41;;;;;;;4.95;3.00;;;;;;;;;;5002865;28;20037;-74
2023/04/28 11:01:23;;;;;;;5.72;3.00;;;;;;;;;;5002688;28;20037;-77
2023/04/28 11:04:02;;;;;;;4.85;3.67;;;;;;;;;;5001313;28;20036;-74
2023/04/28 11:06:28;;;;;;;26.55;13.38;;;;;;;;;;5011936;28;20420;-75
2023/04/28 11:08:55;;;;;;;6.90;4.75;;;;;;;;;;5011869;28;20030;-74
2023/04/28 11:11:24;;;;;;;2.55;2.35;;;;;;;;;;5011383;28;20112;-73
2023/04/28 11:13:50;;;;;;;4.15;2.30;;;;;;;;;;5013529;28;20028;-73
2023/04/28 11:16:18;;;;;;;5.05;2.65;;;;;;;;;;5013557;28;20025;-73
2023/04/28 11:18:49;;;;;;;4.13;2.42;;;;;;;;;;5013123;28;20075;-77
2023/04/28 11:21:15;;;;;;;5.60;4.10;;;;;;;;;;5009132;28;20381;-73
2023/04/28 11:23:42;;;;;;;7.28;4.10;;;;;;;;;;5012317;28;20094;-72
2023/04/28 11:26:07;;;;;;;3.28;2.60;;;;;;;;;;5012315;28;20027;-72
2023/04/28 11:28:33;;;;;;;3.67;2.58;;;;;;;;;;5014060;28;20128;-72
2023/04/28 11:31:23;;;;;;;4.55;2.55;;;;;;;;;;5014368;28;20037;-73
2023/04/28 11:33:50;;;;;;;8.00;6.03;;;;;;;;;;5013266;28;20128;-75
2023/04/28 11:36:42;;;;;;;4.30;2.70;;;;;;;;;;5010399;28;20444;-73
2023/04/28 11:39:08;;;;;;;5.82;3.38;;;;;;;;;;5012635;28;20065;-74
2023/04/28 11:41:37;;;;;;;6.70;3.63;;;;;;;;;;5012101;28;20037;-72
2023/04/28 11:44:09;;;;;;;5.72;3.40;;;;;;;;;;5013153;28;20036;-77
2023/04/28 11:46:35;;;;;;;3.72;2.70;;;;;;;;;;5012279;28;20116;-73
2023/04/28 11:49:01;;;;;;;3.25;2.78;;;;;;;;;;5010641;28;20423;-71
2023/04/28 11:51:33;;;;;;;4.82;3.17;;;;;;;;;;5013668;28;20470;-72
2023/04/28 11:54:00;;;;;;;6.70;3.22;;;;;;;;;;5011802;28;20514;-74
2023/04/28 11:56:26;;;;;;;6.40;4.30;;;;;;;;;;5010599;28;20117;-72
2023/04/28 11:59:05;;;;;;;5.57;3.05;;;;;;;;;;5009296;28;21185;-73
2023/04/28 12:01:31;;;;;;;5.38;4.18;;;;;;;;;;5012761;28;20048;-72
2023/04/28 12:03:56;;;;;;;5.32;3.13;;;;;;;;;;5010419;28;20093;-72
2023/04/28 12:06:22;;;;;;;8.73;6.15;;;;;;;;;;5010513;28;20021;-74
2023/04/28 12:08:47;;;;;;;4.70;3.60;;;;;;;;;;5012308;28;20033;-72
2023/04/28 12:11:13;;;;;;;5.38;3.13;;;;;;;;;;5012199;28;20364;-77
2023/04/28 12:13:38;;;;;;;9.13;5.90;;;;;;;;;;5012674;28;20032;-73
2023/04/28 12:16:05;;;;;;;6.57;4.47;;;;;;;;;;5013843;28;20444;-74
2023/04/28 12:18:34;;;;;;;5.25;3.17;;;;;;;;;;5011328;28;20034;-76
2023/04/28 12:21:00;;;;;;;5.93;3.92;;;;;;;;;;5010004;28;20440;-73
2023/04/28 12:23:31;;;;;;;6.10;3.88;;;;;;;;;;5011631;28;20058;-73
2023/04/28 12:25:57;;;;;;;8.63;5.85;;;;;;;;;;5011209;28;20055;-73
2023/04/28 12:28:23;;;;;;;6.22;5.00;;;;;;;;;;5010391;28;20049;-74
2023/04/28 12:30:48;;;;;;;7.70;3.85;;;;;;;;;;5011740;28;20428;-72
2023/04/28 12:33:23;;;;;;;5.88;4.25;;;;;;;;;;5010665;28;20390;-75
2023/04/28 12:35:49;;;;;;;3.75;2.92;;;;;;;;;;5006394;28;20022;-73
2023/04/28 12:38:15;;;;;;;4.68;2.90;;;;;;;;;;5001819;28;20536;-72
2023/04/28 12:40:41;;;;;;;5.22;2.70;;;;;;;;;;5009925;28;20467;-73
2023/04/28 12:43:06;;;;;;;6.75;3.10;;;;;;;;;;5000589;28;20048;-73
2023/04/28 12:45:32;;;;;;;6.80;4.25;;;;;;;;;;4998189;28;20040;-72
2023/04/28 12:47:57;;;;;;;5.70;3.50;;;;;;;;;;4996387;28;20033;-72
2023/04/28 12:50:24;;;;;;;4.07;3.50;;;;;;;;;;4996651;28;20049;-71
2023/04/28 12:52:49;;;;;;;5.30;4.47;;;;;;;;;;4998336;28;20065;-72
2023/04/28 12:55:15;;;;;;;4.63;3.00;;;;;;;;;;5000592;28;21192;-75
2023/04/28 12:57:40;;;;;;;5.47;3.63;;;;;;;;;;5001140;28;20108;-73
2023/04/28 13:00:07;;;;;;;5.40;4.50;;;;;;;;;;5010189;28;20033;-74
2023/04/28 13:02:32;;;;;;;11.30;6.55;;;;;;;;;;5009648;28;20403;-72
2023/04/28 13:04:57;;;;;;;10.38;5.60;;;;;;;;;;5013762;28;20082;-72
2023/04/28 13:07:23;;;;;;;9.15;5.40;;;;;;;;;;5015553;28;20033;-72
2023/04/28 13:09:48;;;;;;;4.97;3.50;;;;;;;;;;5014550;28;20120;-72
2023/04/28 13:12:13;;;;;;;4.85;2.80;;;;;;;;;;5014723;28;20072;-72
2023/04/28 13:14:39;;;;;;;6.70;4.15;;;;;;;;;;5011120;28;20118;-73
2023/04/28 13:17:04;;;;;;;7.50;5.90;;;;;;;;;;5011611;28;20057;-72
2023/04/28 13:19:31;;;;;;;7.15;4.60;;;;;;;;;;5016221;28;20033;-75
2023/04/28 13:21:56;;;;;;;3.38;2.92;;;;;;;;;;5013789;28;20435;-71
2023/04/28 13:24:21;;;;;;;5.38;3.05;;;;;;;;;;5014770;28;20064;-74
2023/04/28 13:26:47;;;;;;;5.53;4.13;;;;;;;;;;5013167;28;20026;-72
2023/04/28 13:29:13;;;;;;;5.03;3.20;;;;;;;;;;5015779;28;20478;-77
2023/04/28 13:31:40;;;;;;;7.88;2.92;;;;;;;;;;5010670;28;20367;-72
2023/04/28 13:34:06;;;;;;;6.30;3.17;;;;;;;;;;5017574;28;20038;-73
2023/04/28 13:36:32;;;;;;;2.60;2.40;;;;;;;;;;5015114;28;20893;-72
2023/04/28 13:38:58;;;;;;;3.50;2.92;;;;;;;;;;5014566;28;20025;-72
2023/04/28 13:41:24;;;;;;;12.93;5.85;;;;;;;;;;5012494;28;20044;-73
2023/04/28 13:43:50;;;;;;;6.32;3.90;;;;;;;;;;5015028;28;20037;-75
2023/04/28 13:46:15;;;;;;;6.88;4.32;;;;;;;;;;5016176;28;20033;-73
2023/04/28 13:48:40;;;;;;;4.28;3.47;;;;;;;;;;5013741;28;20029;-74
2023/04/28 13:51:06;;;;;;;4.68;3.35;;;;;;;;;;5010051;28;20057;-73
2023/04/28 13:53:32;;;;;;;5.72;3.90;;;;;;;;;;5013570;28;20116;-72
2023/04/28 13:55:58;;;;;;;4.53;3.60;;;;;;;;;;5005330;28;20121;-74
2023/04/28 13:58:24;;;;;;;5.70;3.60;;;;;;;;;;5002812;28;20134;-75
2023/04/28 14:00:49;;;;;;;4.82;4.30;;;;;;;;;;5011109;28;20174;-73
2023/04/28 14:03:15;;;;;;;4.28;3.03;;;;;;;;;;5011492;28;20029;-75
2023/04/28 14:05:41;;;;;;;3.22;2.15;;;;;;;;;;4998591;28;20022;-74
2023/04/28 14:08:08;;;;;;;4.35;2.70;;;;;;;;;;5003562;28;20057;-73
2023/04/28 14:10:34;;;;;;;3.47;2.58;;;;;;;;;;5003396;28;20085;-72
2023/04/28 14:12:59;;;;;;;4.13;2.60;;;;;;;;;;5010710;28;20464;-75
2023/04/28 14:15:25;;;;;;;2.80;2.50;;;;;;;;;;5013029;28;20033;-72
2023/04/28 14:17:50;;;;;;;4.80;2.80;;;;;;;;;;5013015;28;20110;-72
2023/04/28 14:20:16;;;;;;;11.48;3.13;;;;;;;;;;5015009;28;20030;-71
2023/04/28 14:22:42;;;;;;;7.10;2.70;;;;;;;;;;5014000;28;20163;-71